Time;durP1;ratioP1;P1;durP2;ratioP2;P2;SDS_P1;SDS_P2;PMS_P1;PMS_P2;Temp;Humidity;BMP_temperature;BMP_pressure;BME280_temperature;BME280_humidity;BME280_pressure;Samples;Min_cycle;Max_cycle;Signal;HPM_P1;HPM_P2
2022/07/14 00:00:11;;;;;;;3.13;1.20;;;;;;;;;;5015178;28;20962;-66
2022/07/14 00:02:37;;;;;;;1.50;1.40;;;;;;;;;;5015378;28;20447;-66
2022/07/14 00:05:03;;;;;;;3.57;1.27;;;;;;;;;;5015170;28;20892;-67
2022/07/14 00:07:29;;;;;;;3.10;1.20;;;;;;;;;;5015007;28;20422;-66
2022/07/14 00:09:55;;;;;;;1.30;1.30;;;;;;;;;;5015063;28;20407;-66
2022/07/14 00:12:21;;;;;;;3.97;1.40;;;;;;;;;;5014879;28;20502;-67
2022/07/14 00:14:47;;;;;;;1.40;1.30;;;;;;;;;;5014910;28;20408;-66
2022/07/14 00:17:13;;;;;;;3.47;1.53;;;;;;;;;;5014991;28;20438;-66
2022/07/14 00:19:39;;;;;;;2.97;1.27;;;;;;;;;;5014884;28;20940;-66
2022/07/14 00:22:05;;;;;;;2.23;1.60;;;;;;;;;;5014880;28;20446;-66
2022/07/14 00:24:32;;;;;;;5.80;1.47;;;;;;;;;;5014735;28;20412;-67
2022/07/14 00:26:58;;;;;;;3.70;1.57;;;;;;;;;;5014887;28;20824;-66
2022/07/14 00:29:24;;;;;;;5.50;1.50;;;;;;;;;;5014697;28;20403;-66
2022/07/14 00:31:50;;;;;;;2.70;1.53;;;;;;;;;;5014497;28;21026;-66
2022/07/14 00:34:16;;;;;;;8.53;1.63;;;;;;;;;;5014811;28;20424;-67
2022/07/14 00:36:42;;;;;;;6.63;1.63;;;;;;;;;;5014543;28;20414;-66
2022/07/14 00:39:08;;;;;;;4.07;1.70;;;;;;;;;;5014544;28;20427;-67
2022/07/14 00:41:34;;;;;;;1.20;1.10;;;;;;;;;;5014433;28;20417;-66
2022/07/14 00:44:01;;;;;;;1.67;1.57;;;;;;;;;;5014408;28;20408;-66
2022/07/14 00:46:27;;;;;;;1.20;1.20;;;;;;;;;;5014352;28;20425;-66
2022/07/14 00:48:53;;;;;;;1.63;1.20;;;;;;;;;;5014109;28;20887;-66
2022/07/14 00:51:19;;;;;;;2.93;1.60;;;;;;;;;;5014331;28;20431;-66
2022/07/14 00:53:50;;;;;;;5.23;1.17;;;;;;;;;;4996553;28;20554;-66
2022/07/14 00:56:16;;;;;;;2.87;1.40;;;;;;;;;;5014154;28;20431;-66
2022/07/14 00:58:42;;;;;;;3.03;1.67;;;;;;;;;;5014129;28;20415;-66
2022/07/14 01:01:08;;;;;;;5.80;1.30;;;;;;;;;;5014164;28;20437;-66
2022/07/14 01:03:34;;;;;;;1.50;1.40;;;;;;;;;;5014129;28;20415;-66
2022/07/14 01:06:00;;;;;;;3.63;1.37;;;;;;;;;;5014415;28;20415;-67
2022/07/14 01:08:26;;;;;;;4.13;1.30;;;;;;;;;;5013281;28;20494;-66
2022/07/14 01:10:52;;;;;;;1.70;1.60;;;;;;;;;;5013994;28;20929;-66
2022/07/14 01:13:18;;;;;;;2.00;1.53;;;;;;;;;;5014003;28;20526;-66
2022/07/14 01:15:44;;;;;;;1.67;1.57;;;;;;;;;;5013935;28;20406;-66
2022/07/14 01:18:10;;;;;;;3.73;1.60;;;;;;;;;;5014013;28;20411;-66
2022/07/14 01:20:36;;;;;;;2.33;1.20;;;;;;;;;;5013951;28;20423;-67
2022/07/14 01:23:02;;;;;;;3.23;1.17;;;;;;;;;;5013862;28;20438;-67
2022/07/14 01:25:28;;;;;;;1.63;1.23;;;;;;;;;;5013861;28;20423;-69
2022/07/14 01:27:54;;;;;;;1.20;1.10;;;;;;;;;;5014036;28;20419;-66
2022/07/14 01:30:20;;;;;;;2.47;1.20;;;;;;;;;;5014114;28;20755;-67
2022/07/14 01:32:46;;;;;;;1.63;1.37;;;;;;;;;;5013687;28;20476;-67
2022/07/14 01:35:12;;;;;;;1.40;1.40;;;;;;;;;;5013719;28;20413;-67
2022/07/14 01:37:39;;;;;;;2.70;1.10;;;;;;;;;;5013677;28;20497;-67
2022/07/14 01:40:05;;;;;;;5.30;1.43;;;;;;;;;;5013733;28;20425;-66
2022/07/14 01:42:31;;;;;;;1.60;1.20;;;;;;;;;;5013833;28;20449;-66
2022/07/14 01:44:57;;;;;;;1.77;1.43;;;;;;;;;;5013686;28;20483;-67
2022/07/14 01:47:25;;;;;;;1.87;1.43;;;;;;;;;;5013414;28;20416;-67
2022/07/14 01:49:51;;;;;;;1.37;1.37;;;;;;;;;;5013553;28;20405;-67
2022/07/14 01:52:17;;;;;;;4.30;1.10;;;;;;;;;;5013585;28;20573;-67
2022/07/14 01:54:42;;;;;;;2.03;1.10;;;;;;;;;;5013535;28;20910;-67
2022/07/14 01:57:09;;;;;;;3.67;1.40;;;;;;;;;;5013533;28;20831;-67
2022/07/14 01:59:35;;;;;;;3.30;1.63;;;;;;;;;;5013514;28;20418;-66
2022/07/14 02:02:01;;;;;;;1.10;1.10;;;;;;;;;;5013526;28;20763;-67
2022/07/14 02:04:28;;;;;;;3.53;1.40;;;;;;;;;;5013519;28;20417;-67
2022/07/14 02:06:54;;;;;;;1.00;0.90;;;;;;;;;;5013426;28;20824;-67
2022/07/14 02:09:21;;;;;;;1.37;1.37;;;;;;;;;;5013426;28;20415;-66
2022/07/14 02:14:32;;;;;;;2.23;1.10;;;;;;;;;;5013455;28;20491;-67
2022/07/14 02:16:58;;;;;;;2.20;1.30;;;;;;;;;;5013360;28;20410;-68
2022/07/14 02:19:24;;;;;;;3.47;1.37;;;;;;;;;;5013406;28;20422;-67
2022/07/14 02:21:54;;;;;;;1.53;1.43;;;;;;;;;;5017117;28;20408;-67
2022/07/14 02:24:20;;;;;;;1.60;1.47;;;;;;;;;;5017125;28;20408;-67
2022/07/14 02:26:48;;;;;;;1.63;1.37;;;;;;;;;;5016981;28;20482;-66
2022/07/14 02:29:14;;;;;;;1.27;1.27;;;;;;;;;;5017260;28;20437;-67
2022/07/14 02:31:42;;;;;;;1.43;1.33;;;;;;;;;;5016868;28;20775;-67
2022/07/14 02:34:08;;;;;;;3.70;1.40;;;;;;;;;;5017175;28;20418;-67
2022/07/14 02:36:34;;;;;;;2.80;1.43;;;;;;;;;;5016868;28;20403;-66
2022/07/14 02:39:00;;;;;;;1.40;1.30;;;;;;;;;;5016888;28;20505;-66
2022/07/14 02:41:26;;;;;;;1.30;1.30;;;;;;;;;;5016772;28;20417;-67
2022/07/14 02:43:52;;;;;;;1.53;1.37;;;;;;;;;;5016635;28;20903;-66
2022/07/14 02:46:18;;;;;;;1.93;1.43;;;;;;;;;;5016695;28;20469;-67
2022/07/14 02:48:44;;;;;;;5.07;1.63;;;;;;;;;;5016530;28;20470;-67
2022/07/14 02:51:10;;;;;;;1.37;1.30;;;;;;;;;;5016669;28;20410;-67
2022/07/14 02:53:36;;;;;;;1.60;1.40;;;;;;;;;;5016466;28;20937;-67
2022/07/14 02:56:03;;;;;;;1.40;1.30;;;;;;;;;;5016536;28;20774;-66
2022/07/14 02:58:29;;;;;;;1.53;1.43;;;;;;;;;;5016442;28;20413;-66
2022/07/14 03:00:55;;;;;;;3.13;1.30;;;;;;;;;;5016505;28;20411;-67
2022/07/14 03:03:22;;;;;;;1.30;1.30;;;;;;;;;;5016381;28;20506;-66
2022/07/14 03:05:48;;;;;;;1.50;1.40;;;;;;;;;;5016301;28;20405;-67
2022/07/14 03:08:14;;;;;;;1.40;1.40;;;;;;;;;;5016373;28;20902;-66
2022/07/14 03:10:40;;;;;;;1.93;1.23;;;;;;;;;;5016318;28;20438;-67
2022/07/14 03:13:06;;;;;;;2.20;1.30;;;;;;;;;;4998431;28;20508;-66
2022/07/14 03:15:32;;;;;;;1.57;1.57;;;;;;;;;;5016398;28;20435;-67
2022/07/14 03:17:58;;;;;;;1.50;1.40;;;;;;;;;;5016397;28;20783;-67
2022/07/14 03:20:25;;;;;;;1.17;1.13;;;;;;;;;;5016053;28;20438;-66
2022/07/14 03:22:51;;;;;;;1.13;1.13;;;;;;;;;;5015993;28;20419;-67
2022/07/14 03:25:17;;;;;;;1.30;1.20;;;;;;;;;;5015941;28;20777;-66
2022/07/14 03:27:46;;;;;;;1.37;1.20;;;;;;;;;;5015931;28;20426;-67
2022/07/14 03:30:12;;;;;;;1.70;1.70;;;;;;;;;;5015883;28;20410;-67
2022/07/14 03:32:39;;;;;;;1.63;1.10;;;;;;;;;;5014827;28;20628;-66
2022/07/14 03:35:07;;;;;;;4.93;1.90;;;;;;;;;;5016022;28;20408;-67
2022/07/14 03:37:37;;;;;;;1.60;1.50;;;;;;;;;;5015790;28;20831;-66
2022/07/14 03:40:04;;;;;;;2.00;1.50;;;;;;;;;;5015800;28;20938;-67
2022/07/14 03:42:30;;;;;;;1.40;1.40;;;;;;;;;;5015639;28;20423;-67
2022/07/14 03:44:56;;;;;;;5.77;1.60;;;;;;;;;;4998103;28;20580;-67
2022/07/14 03:47:22;;;;;;;4.43;1.80;;;;;;;;;;5015423;28;20445;-67
2022/07/14 03:49:48;;;;;;;2.80;1.37;;;;;;;;;;5015500;28;20897;-67
2022/07/14 03:52:15;;;;;;;1.40;1.40;;;;;;;;;;4997851;28;20470;-67
2022/07/14 03:54:44;;;;;;;1.80;1.70;;;;;;;;;;5015725;28;20755;-67
2022/07/14 03:57:10;;;;;;;1.93;1.83;;;;;;;;;;5015412;28;20418;-67
2022/07/14 03:59:40;;;;;;;4.63;1.67;;;;;;;;;;5015385;28;20406;-67
2022/07/14 04:02:06;;;;;;;6.20;5.77;;;;;;;;;;5015468;28;20477;-67
2022/07/14 04:04:32;;;;;;;13.57;10.10;;;;;;;;;;5015172;28;20410;-67
2022/07/14 04:06:58;;;;;;;5.23;3.93;;;;;;;;;;5015168;28;20419;-66
2022/07/14 04:09:24;;;;;;;6.90;2.90;;;;;;;;;;5015059;28;20410;-67
2022/07/14 04:11:50;;;;;;;1.80;1.70;;;;;;;;;;5014877;28;20446;-67
2022/07/14 04:14:16;;;;;;;3.67;1.90;;;;;;;;;;5015031;28;20777;-66
2022/07/14 04:16:42;;;;;;;1.70;1.70;;;;;;;;;;4997338;28;20430;-67
2022/07/14 04:19:08;;;;;;;2.20;1.93;;;;;;;;;;5015011;28;20417;-65
2022/07/14 04:21:36;;;;;;;6.30;3.70;;;;;;;;;;5014929;28;20422;-65
2022/07/14 04:24:03;;;;;;;5.70;1.90;;;;;;;;;;5014793;28;20402;-65
2022/07/14 04:26:29;;;;;;;2.87;2.60;;;;;;;;;;5014828;28;20445;-65
2022/07/14 04:28:55;;;;;;;1.90;1.80;;;;;;;;;;5015038;28;20410;-65
2022/07/14 04:31:21;;;;;;;3.80;1.43;;;;;;;;;;5014723;28;20426;-65
2022/07/14 04:33:47;;;;;;;1.20;1.20;;;;;;;;;;5014549;28;20466;-65
2022/07/14 04:36:13;;;;;;;5.23;1.30;;;;;;;;;;5014490;28;20402;-65
2022/07/14 04:38:39;;;;;;;2.07;1.97;;;;;;;;;;5014683;28;20898;-65
2022/07/14 04:41:05;;;;;;;1.53;1.40;;;;;;;;;;5014732;28;20414;-65
2022/07/14 04:43:31;;;;;;;9.83;1.67;;;;;;;;;;5014374;28;20921;-65
2022/07/14 04:45:57;;;;;;;9.17;2.27;;;;;;;;;;5014429;28;20401;-65
2022/07/14 04:48:24;;;;;;;4.87;1.93;;;;;;;;;;5014316;28;20464;-65
2022/07/14 04:53:38;;;;;;;3.07;2.40;;;;;;;;;;5014408;28;20468;-65
2022/07/14 04:56:04;;;;;;;2.97;2.50;;;;;;;;;;5014325;28;20886;-65
2022/07/14 04:58:31;;;;;;;2.70;2.47;;;;;;;;;;5014125;28;21028;-65
2022/07/14 05:01:00;;;;;;;2.30;2.20;;;;;;;;;;5014205;28;21043;-65
2022/07/14 05:03:26;;;;;;;2.73;2.53;;;;;;;;;;5014248;28;20402;-65
2022/07/14 05:05:52;;;;;;;4.17;2.13;;;;;;;;;;5014082;28;20407;-65
2022/07/14 05:08:18;;;;;;;2.20;2.13;;;;;;;;;;5014336;28;20438;-67
2022/07/14 05:10:44;;;;;;;5.27;2.17;;;;;;;;;;5014039;28;20494;-67
2022/07/14 05:13:10;;;;;;;2.73;2.23;;;;;;;;;;5013865;28;20625;-67
2022/07/14 05:15:36;;;;;;;1.70;1.70;;;;;;;;;;5013859;28;21020;-66
2022/07/14 05:18:02;;;;;;;2.33;2.13;;;;;;;;;;5013837;28;20817;-67
2022/07/14 05:20:28;;;;;;;1.43;1.43;;;;;;;;;;5014005;28;20415;-67
2022/07/14 05:22:54;;;;;;;15.27;13.70;;;;;;;;;;5014134;28;20442;-67
2022/07/14 05:25:20;;;;;;;2.30;2.10;;;;;;;;;;5013836;28;20774;-67
2022/07/14 05:27:46;;;;;;;10.43;8.70;;;;;;;;;;5013778;28;20525;-66
2022/07/14 05:30:12;;;;;;;2.00;1.67;;;;;;;;;;5013680;28;20408;-67
2022/07/14 05:32:39;;;;;;;3.33;1.63;;;;;;;;;;5013622;28;20818;-67
2022/07/14 05:35:05;;;;;;;2.67;1.73;;;;;;;;;;5013638;28;20415;-66
2022/07/14 05:37:32;;;;;;;2.93;1.40;;;;;;;;;;5013718;28;20502;-67
2022/07/14 05:39:58;;;;;;;1.20;1.20;;;;;;;;;;5013758;28;20407;-67
2022/07/14 05:42:24;;;;;;;1.73;1.57;;;;;;;;;;5013586;28;20432;-66
2022/07/14 05:44:50;;;;;;;2.40;1.43;;;;;;;;;;5013726;28;20821;-67
2022/07/14 05:47:16;;;;;;;1.50;1.50;;;;;;;;;;5013514;28;20515;-66
2022/07/14 05:49:43;;;;;;;1.20;1.20;;;;;;;;;;5013595;28;20416;-67
2022/07/14 05:52:12;;;;;;;2.10;1.67;;;;;;;;;;5013484;28;20501;-67
2022/07/14 05:54:38;;;;;;;1.40;1.30;;;;;;;;;;5014096;28;20576;-65
2022/07/14 05:57:04;;;;;;;2.53;1.30;;;;;;;;;;5017622;28;20959;-65
2022/07/14 05:59:30;;;;;;;1.80;1.30;;;;;;;;;;5017869;28;20793;-65
2022/07/14 06:01:56;;;;;;;1.70;1.60;;;;;;;;;;5017553;28;20504;-66
2022/07/14 06:04:22;;;;;;;144.93;128.13;;;;;;;;;;5017359;28;20889;-66
2022/07/14 06:06:48;;;;;;;7.33;5.47;;;;;;;;;;5017365;28;20415;-68
2022/07/14 06:09:15;;;;;;;2.20;2.10;;;;;;;;;;5017426;28;20418;-66
2022/07/14 06:11:43;;;;;;;2.77;1.47;;;;;;;;;;5017109;28;20467;-69
2022/07/14 06:14:10;;;;;;;2.63;1.70;;;;;;;;;;5017334;28;20446;-69
2022/07/14 06:16:36;;;;;;;1.73;1.63;;;;;;;;;;5017049;28;20469;-70
2022/07/14 06:19:01;;;;;;;8.50;1.90;;;;;;;;;;5017019;28;20415;-70
2022/07/14 06:21:27;;;;;;;1.33;1.23;;;;;;;;;;5017385;28;20410;-70
2022/07/14 06:23:54;;;;;;;4.00;1.50;;;;;;;;;;5017013;28;20949;-70
2022/07/14 06:26:20;;;;;;;13.70;1.87;;;;;;;;;;5016950;28;20456;-70
2022/07/14 06:28:46;;;;;;;2.10;1.47;;;;;;;;;;5016929;28;20407;-69
2022/07/14 06:31:13;;;;;;;1.80;1.70;;;;;;;;;;5016869;28;20407;-70
2022/07/14 06:33:39;;;;;;;2.20;1.30;;;;;;;;;;5016660;28;20565;-70
2022/07/14 06:36:06;;;;;;;2.10;1.60;;;;;;;;;;5016712;28;20434;-72
2022/07/14 06:38:32;;;;;;;1.67;1.53;;;;;;;;;;5017035;28;20415;-70
2022/07/14 06:40:58;;;;;;;2.60;1.60;;;;;;;;;;5016722;28;20465;-72
2022/07/14 06:43:24;;;;;;;10.13;1.60;;;;;;;;;;5016572;28;20424;-70
2022/07/14 06:45:50;;;;;;;1.50;1.50;;;;;;;;;;5016913;28;20398;-71
2022/07/14 06:48:17;;;;;;;1.40;1.30;;;;;;;;;;5016399;28;20532;-71
2022/07/14 06:50:43;;;;;;;2.10;1.60;;;;;;;;;;5016802;28;20401;-67
2022/07/14 06:53:09;;;;;;;3.80;1.40;;;;;;;;;;5016533;28;20477;-70
2022/07/14 06:55:35;;;;;;;1.50;1.50;;;;;;;;;;5016395;28;20483;-72
2022/07/14 06:58:01;;;;;;;3.77;2.03;;;;;;;;;;4998650;28;20433;-77
2022/07/14 07:00:27;;;;;;;1.40;1.40;;;;;;;;;;5016295;28;20413;-71
2022/07/14 07:02:53;;;;;;;1.13;1.13;;;;;;;;;;4998796;28;20472;-69
2022/07/14 07:08:04;;;;;;;1.20;1.20;;;;;;;;;;5014982;28;20407;-70
2022/07/14 07:10:30;;;;;;;5.83;1.57;;;;;;;;;;5015986;28;20406;-70
2022/07/14 07:12:57;;;;;;;1.93;1.37;;;;;;;;;;5015842;28;20984;-71
2022/07/14 07:15:23;;;;;;;7.80;1.70;;;;;;;;;;5016089;28;20399;-70
2022/07/14 07:17:49;;;;;;;2.70;1.63;;;;;;;;;;5015911;28;20442;-70
2022/07/14 07:20:15;;;;;;;1.30;1.30;;;;;;;;;;5015906;28;20555;-70
2022/07/14 07:22:41;;;;;;;4.33;1.43;;;;;;;;;;5015814;28;20409;-69
2022/07/14 07:25:08;;;;;;;2.30;1.30;;;;;;;;;;5015888;28;20883;-69
2022/07/14 07:27:35;;;;;;;2.03;1.70;;;;;;;;;;5016027;28;20503;-70
2022/07/14 07:30:01;;;;;;;2.10;1.10;;;;;;;;;;5016018;28;20398;-70
2022/07/14 07:32:27;;;;;;;1.50;1.40;;;;;;;;;;5015781;28;20475;-71
2022/07/14 07:34:54;;;;;;;1.20;1.10;;;;;;;;;;5016834;28;20415;-71
2022/07/14 07:37:21;;;;;;;1.13;1.13;;;;;;;;;;5016206;28;20414;-71
2022/07/14 07:39:47;;;;;;;1.43;1.33;;;;;;;;;;5016171;28;20405;-71
2022/07/14 07:42:13;;;;;;;1.67;1.57;;;;;;;;;;5015714;28;20965;-69
2022/07/14 07:44:39;;;;;;;3.43;1.40;;;;;;;;;;5015667;28;20458;-69
2022/07/14 07:47:05;;;;;;;2.03;1.30;;;;;;;;;;5015664;28;20689;-69
2022/07/14 07:49:31;;;;;;;2.10;1.53;;;;;;;;;;5015328;28;20459;-71
2022/07/14 07:52:01;;;;;;;1.40;1.40;;;;;;;;;;5015703;28;20423;-70
2022/07/14 07:54:28;;;;;;;1.67;1.57;;;;;;;;;;5015363;28;20426;-70
2022/07/14 07:56:54;;;;;;;1.60;1.50;;;;;;;;;;5015375;28;20416;-71
2022/07/14 07:59:20;;;;;;;2.97;1.33;;;;;;;;;;5015404;28;20420;-71
2022/07/14 08:01:46;;;;;;;9.57;1.50;;;;;;;;;;5015579;28;20779;-71
2022/07/14 08:04:14;;;;;;;1.30;1.23;;;;;;;;;;5015142;28;20408;-68
2022/07/14 08:06:40;;;;;;;3.50;1.40;;;;;;;;;;5014991;28;20397;-68
2022/07/14 08:09:11;;;;;;;3.87;1.60;;;;;;;;;;5015048;28;20413;-67
2022/07/14 08:11:37;;;;;;;1.37;1.00;;;;;;;;;;5014947;28;20425;-67
2022/07/14 08:14:03;;;;;;;1.30;1.20;;;;;;;;;;4997282;28;20562;-67
2022/07/14 08:16:30;;;;;;;2.60;0.97;;;;;;;;;;5015143;28;20469;-68
2022/07/14 08:18:56;;;;;;;1.50;1.30;;;;;;;;;;5014453;28;20397;-67
2022/07/14 08:21:23;;;;;;;5.63;1.80;;;;;;;;;;5014900;28;20836;-68
2022/07/14 08:23:50;;;;;;;1.70;1.27;;;;;;;;;;5014808;28;20401;-69
2022/07/14 08:26:16;;;;;;;1.40;1.23;;;;;;;;;;5014877;28;20437;-67
2022/07/14 08:28:42;;;;;;;1.20;1.20;;;;;;;;;;5014721;28;20958;-67
2022/07/14 08:31:08;;;;;;;3.73;1.40;;;;;;;;;;5014655;28;20633;-68
2022/07/14 08:33:34;;;;;;;3.13;1.53;;;;;;;;;;5014452;28;20508;-67
2022/07/14 08:36:00;;;;;;;3.40;1.30;;;;;;;;;;5014524;28;20460;-68
2022/07/14 08:38:26;;;;;;;3.10;1.33;;;;;;;;;;5014753;28;20770;-67
2022/07/14 08:40:52;;;;;;;3.03;1.13;;;;;;;;;;5014513;28;20401;-67
2022/07/14 08:43:18;;;;;;;2.57;1.00;;;;;;;;;;5014505;28;20421;-67
2022/07/14 08:45:44;;;;;;;1.00;1.00;;;;;;;;;;5014325;28;20952;-68
2022/07/14 08:48:11;;;;;;;2.93;1.07;;;;;;;;;;5014214;28;20496;-68
2022/07/14 08:50:37;;;;;;;1.40;1.30;;;;;;;;;;5014289;28;20412;-69
2022/07/14 08:53:04;;;;;;;2.10;2.10;;;;;;;;;;5014310;28;20476;-67
2022/07/14 08:55:30;;;;;;;2.23;1.37;;;;;;;;;;5014065;28;20463;-67
2022/07/14 08:57:56;;;;;;;2.20;1.30;;;;;;;;;;5014001;28;20512;-69
2022/07/14 09:00:22;;;;;;;2.23;1.47;;;;;;;;;;5014158;28;20919;-67
2022/07/14 09:02:49;;;;;;;3.13;1.30;;;;;;;;;;5014240;28;20432;-68
2022/07/14 09:05:16;;;;;;;2.97;1.20;;;;;;;;;;5014230;28;20424;-69
2022/07/14 09:07:42;;;;;;;6.27;1.30;;;;;;;;;;5014138;28;20412;-67
2022/07/14 09:10:09;;;;;;;1.60;1.50;;;;;;;;;;5014112;28;20405;-68
2022/07/14 09:12:36;;;;;;;2.20;1.23;;;;;;;;;;5013955;28;20475;-68
2022/07/14 09:17:57;;;;;;;3.50;1.00;;;;;;;;;;5013814;28;20459;-69
2022/07/14 09:20:25;;;;;;;1.90;1.10;;;;;;;;;;5013876;28;20769;-69
2022/07/14 09:22:58;;;;;;;1.00;0.90;;;;;;;;;;5013984;28;20396;-68
2022/07/14 09:25:25;;;;;;;4.30;1.20;;;;;;;;;;5013916;28;20409;-69
2022/07/14 09:27:52;;;;;;;2.50;1.40;;;;;;;;;;5013751;28;20427;-68
2022/07/14 09:30:18;;;;;;;1.53;1.33;;;;;;;;;;5012981;28;20943;-67
2022/07/14 09:32:45;;;;;;;1.10;1.10;;;;;;;;;;5013701;28;20469;-66
2022/07/14 09:35:12;;;;;;;2.60;1.23;;;;;;;;;;5013604;28;20455;-68
2022/07/14 09:37:42;;;;;;;1.40;1.00;;;;;;;;;;4995908;28;20966;-69
2022/07/14 09:40:15;;;;;;;5.80;1.10;;;;;;;;;;4995977;28;20432;-69
2022/07/14 09:42:50;;;;;;;4.57;1.57;;;;;;;;;;5013542;28;20490;-70
2022/07/14 09:45:16;;;;;;;1.43;1.10;;;;;;;;;;5013615;28;20411;-69
2022/07/14 09:47:53;;;;;;;3.70;1.10;;;;;;;;;;5013303;28;20475;-70
2022/07/14 09:50:37;;;;;;;0.93;0.93;;;;;;;;;;5013509;28;20413;-72
2022/07/14 09:53:18;;;;;;;1.93;1.10;;;;;;;;;;5013453;28;20835;-69
2022/07/14 09:55:49;;;;;;;0.80;0.80;;;;;;;;;;5013434;28;20415;-70
2022/07/14 09:58:15;;;;;;;2.40;1.17;;;;;;;;;;5013382;28;20406;-70
2022/07/14 10:00:43;;;;;;;5.37;1.10;;;;;;;;;;5013482;28;20405;-70
2022/07/14 10:03:09;;;;;;;1.80;1.10;;;;;;;;;;5013367;28;20401;-70
2022/07/14 10:05:35;;;;;;;1.07;1.03;;;;;;;;;;5013344;28;20817;-72
2022/07/14 10:08:03;;;;;;;1.60;1.50;;;;;;;;;;5013432;28;20412;-70
2022/07/14 10:10:32;;;;;;;4.57;1.53;;;;;;;;;;5013645;28;20417;-71
2022/07/14 10:12:58;;;;;;;3.33;1.17;;;;;;;;;;5013223;28;20500;-71
2022/07/14 10:15:24;;;;;;;2.30;1.60;;;;;;;;;;5013249;28;20410;-69
2022/07/14 10:17:51;;;;;;;1.10;1.10;;;;;;;;;;5013293;28;20425;-69
2022/07/14 10:20:19;;;;;;;2.03;1.27;;;;;;;;;;5013106;28;20892;-69
2022/07/14 10:22:46;;;;;;;2.70;1.40;;;;;;;;;;5013170;28;20697;-69
2022/07/14 10:25:12;;;;;;;1.17;1.17;;;;;;;;;;5013257;28;20401;-68
2022/07/14 10:27:39;;;;;;;1.07;1.07;;;;;;;;;;5013180;28;20838;-68
2022/07/14 10:30:05;;;;;;;4.73;1.33;;;;;;;;;;5013153;28;20415;-71
2022/07/14 10:33:00;;;;;;;2.33;1.47;;;;;;;;;;5012960;28;20555;-70
2022/07/14 10:35:32;;;;;;;1.30;1.17;;;;;;;;;;4976972;28;20909;-69
2022/07/14 10:38:13;;;;;;;6.03;1.27;;;;;;;;;;5013012;28;20415;-69
2022/07/14 10:40:58;;;;;;;3.30;1.40;;;;;;;;;;5013553;28;20397;-69
2022/07/14 10:43:25;;;;;;;1.20;1.20;;;;;;;;;;5016554;28;20416;-69
2022/07/14 10:45:52;;;;;;;1.27;1.20;;;;;;;;;;5016454;28;20926;-69
2022/07/14 10:48:32;;;;;;;1.90;1.20;;;;;;;;;;5016354;28;20543;-69
2022/07/14 10:51:17;;;;;;;1.47;1.13;;;;;;;;;;5016436;28;20440;-69
2022/07/14 10:54:01;;;;;;;0.93;0.93;;;;;;;;;;5016354;28;20603;-69
2022/07/14 10:56:28;;;;;;;0.80;0.80;;;;;;;;;;4998668;28;20787;-70
2022/07/14 10:59:12;;;;;;;1.03;1.03;;;;;;;;;;5016333;28;20409;-70
2022/07/14 11:01:58;;;;;;;1.30;1.20;;;;;;;;;;5016395;28;20496;-69
2022/07/14 11:04:43;;;;;;;1.20;1.20;;;;;;;;;;5016124;28;20619;-69
2022/07/14 11:07:29;;;;;;;2.53;1.10;;;;;;;;;;5016492;28;20449;-70
2022/07/14 11:09:55;;;;;;;1.40;1.40;;;;;;;;;;5016183;28;20404;-70
2022/07/14 11:12:21;;;;;;;2.10;1.00;;;;;;;;;;5016395;28;20456;-69
2022/07/14 11:14:47;;;;;;;1.47;1.20;;;;;;;;;;5016100;28;20409;-69
2022/07/14 11:17:32;;;;;;;1.00;1.00;;;;;;;;;;5016148;28;20436;-70
2022/07/14 11:19:58;;;;;;;0.97;0.97;;;;;;;;;;5015991;28;20413;-69
2022/07/14 11:22:25;;;;;;;0.93;0.93;;;;;;;;;;5016033;28;20409;-70
2022/07/14 11:24:53;;;;;;;2.50;0.97;;;;;;;;;;5016004;28;20201;-69
2022/07/14 11:27:27;;;;;;;0.90;0.90;;;;;;;;;;5016144;28;20543;-69
2022/07/14 11:29:56;;;;;;;0.87;0.87;;;;;;;;;;5015878;28;20402;-70
2022/07/14 11:32:29;;;;;;;1.17;0.90;;;;;;;;;;4998090;28;20518;-70
2022/07/14 11:37:58;;;;;;;1.00;0.90;;;;;;;;;;5015775;28;20420;-70
2022/07/14 11:40:43;;;;;;;1.17;0.90;;;;;;;;;;5015564;28;20471;-69
2022/07/14 11:43:28;;;;;;;2.33;1.13;;;;;;;;;;4997590;28;20512;-71
2022/07/14 11:45:56;;;;;;;1.00;1.00;;;;;;;;;;4997840;28;20470;-71
2022/07/14 11:48:28;;;;;;;0.80;0.60;;;;;;;;;;5015125;28;20476;-69
2022/07/14 11:51:01;;;;;;;1.90;1.00;;;;;;;;;;4997445;28;20429;-70
2022/07/14 11:53:27;;;;;;;0.90;0.90;;;;;;;;;;5014517;28;20469;-72
2022/07/14 11:55:54;;;;;;;1.00;1.00;;;;;;;;;;5015470;28;20435;-70
2022/07/14 11:58:24;;;;;;;3.13;0.90;;;;;;;;;;5015279;28;20434;-72
2022/07/14 12:00:57;;;;;;;1.07;1.07;;;;;;;;;;5015307;28;20412;-69
2022/07/14 12:03:23;;;;;;;0.90;0.90;;;;;;;;;;5015306;28;20446;-71
2022/07/14 12:05:53;;;;;;;9.13;1.10;;;;;;;;;;5015185;28;20405;-71
2022/07/14 12:08:27;;;;;;;1.17;0.90;;;;;;;;;;4997625;28;20450;-71
2022/07/14 12:10:53;;;;;;;2.20;1.10;;;;;;;;;;5015136;28;20543;-71
2022/07/14 12:13:20;;;;;;;1.13;0.80;;;;;;;;;;5015109;28;20472;-70
2022/07/14 12:15:50;;;;;;;4.23;1.03;;;;;;;;;;5015064;28;20393;-71
2022/07/14 12:18:16;;;;;;;1.77;0.80;;;;;;;;;;5015019;28;20417;-70
2022/07/14 12:20:46;;;;;;;1.30;1.20;;;;;;;;;;5014954;28;20408;-70
2022/07/14 12:23:13;;;;;;;1.10;1.00;;;;;;;;;;5014967;28;20770;-69
2022/07/14 12:25:44;;;;;;;0.93;0.93;;;;;;;;;;5014961;28;20911;-69
2022/07/14 12:28:11;;;;;;;1.00;1.00;;;;;;;;;;5014825;28;20417;-70
2022/07/14 12:30:46;;;;;;;3.53;1.07;;;;;;;;;;5015027;28;20500;-69
2022/07/14 12:33:13;;;;;;;4.10;0.93;;;;;;;;;;5014884;28;20832;-70
2022/07/14 12:35:43;;;;;;;1.27;1.00;;;;;;;;;;5014772;28;20412;-69
2022/07/14 12:38:11;;;;;;;3.03;1.10;;;;;;;;;;5014773;28;20448;-68
2022/07/14 12:40:38;;;;;;;0.80;0.80;;;;;;;;;;5014633;28;20950;-70
2022/07/14 12:43:04;;;;;;;2.17;1.10;;;;;;;;;;5014541;28;20412;-71
2022/07/14 12:45:30;;;;;;;1.63;0.90;;;;;;;;;;5014686;28;20435;-70
2022/07/14 12:48:00;;;;;;;1.23;0.83;;;;;;;;;;5014240;28;20825;-70
2022/07/14 12:50:27;;;;;;;1.97;1.83;;;;;;;;;;5014430;28;20441;-69
2022/07/14 12:52:54;;;;;;;2.10;1.40;;;;;;;;;;5014358;28;20472;-69
2022/07/14 12:55:33;;;;;;;1.63;1.30;;;;;;;;;;5014450;28;20464;-69
2022/07/14 12:58:09;;;;;;;1.40;1.40;;;;;;;;;;5014284;28;20420;-70
2022/07/14 13:00:36;;;;;;;1.70;0.97;;;;;;;;;;5014275;28;20820;-69
2022/07/14 13:03:12;;;;;;;4.73;1.10;;;;;;;;;;5014258;28;20420;-69
2022/07/14 13:05:43;;;;;;;4.53;1.07;;;;;;;;;;5014194;28;20436;-69
2022/07/14 13:08:32;;;;;;;0.80;0.80;;;;;;;;;;5014483;28;20417;-71
2022/07/14 13:10:59;;;;;;;2.63;1.20;;;;;;;;;;5014126;28;20413;-72
2022/07/14 13:13:33;;;;;;;1.00;1.00;;;;;;;;;;4996410;28;20484;-71
2022/07/14 13:16:31;;;;;;;1.17;1.17;;;;;;;;;;5014055;28;20409;-69
2022/07/14 13:19:06;;;;;;;6.93;1.27;;;;;;;;;;4991638;28;20424;-69
2022/07/14 13:21:50;;;;;;;4.57;0.97;;;;;;;;;;5013951;28;20773;-68
2022/07/14 13:24:18;;;;;;;3.23;3.03;;;;;;;;;;5013956;28;20471;-68
2022/07/14 13:26:44;;;;;;;3.13;1.00;;;;;;;;;;5013860;28;20459;-69
2022/07/14 13:29:10;;;;;;;0.90;0.90;;;;;;;;;;5013872;28;20918;-69
2022/07/14 13:31:36;;;;;;;2.00;1.10;;;;;;;;;;5013861;28;20416;-70
2022/07/14 13:34:03;;;;;;;4.77;1.20;;;;;;;;;;5013518;28;20214;-70
2022/07/14 13:36:30;;;;;;;1.80;1.00;;;;;;;;;;5013744;28;20463;-68
2022/07/14 13:38:56;;;;;;;1.37;1.37;;;;;;;;;;5013841;28;20409;-67
2022/07/14 13:41:23;;;;;;;3.43;1.30;;;;;;;;;;5013549;28;20451;-71
2022/07/14 13:43:50;;;;;;;1.27;1.10;;;;;;;;;;5013697;28;20510;-70
2022/07/14 13:46:17;;;;;;;13.40;12.60;;;;;;;;;;5013703;28;20397;-70
2022/07/14 13:48:43;;;;;;;2.40;1.47;;;;;;;;;;5013416;28;20516;-70
2022/07/14 13:53:54;;;;;;;1.10;1.10;;;;;;;;;;5013740;28;20471;-70
2022/07/14 13:56:20;;;;;;;1.73;1.10;;;;;;;;;;5013592;28;20409;-71
2022/07/14 13:58:46;;;;;;;5.60;1.27;;;;;;;;;;5013602;28;20436;-71
2022/07/14 14:01:12;;;;;;;5.07;1.30;;;;;;;;;;5013508;28;20773;-70
2022/07/14 14:03:40;;;;;;;1.13;1.13;;;;;;;;;;5013668;28;20463;-71
2022/07/14 14:06:10;;;;;;;1.60;1.10;;;;;;;;;;5013435;28;20439;-71
2022/07/14 14:08:36;;;;;;;3.43;1.27;;;;;;;;;;5013432;28;20405;-70
2022/07/14 14:11:03;;;;;;;1.10;0.97;;;;;;;;;;5013268;28;20943;-71
2022/07/14 14:13:30;;;;;;;0.80;0.80;;;;;;;;;;5013105;28;20252;-72
2022/07/14 14:15:57;;;;;;;1.30;1.20;;;;;;;;;;5014134;28;20402;-71
2022/07/14 14:18:23;;;;;;;2.57;1.10;;;;;;;;;;5017293;28;20899;-70
2022/07/14 14:20:49;;;;;;;1.00;1.00;;;;;;;;;;4999603;28;20413;-69
2022/07/14 14:23:15;;;;;;;7.93;1.50;;;;;;;;;;5017194;28;20754;-70
2022/07/14 14:25:41;;;;;;;1.47;1.47;;;;;;;;;;5016938;28;20169;-69
2022/07/14 14:28:07;;;;;;;1.30;1.20;;;;;;;;;;5016931;28;20427;-70
2022/07/14 14:30:37;;;;;;;1.27;1.10;;;;;;;;;;5016950;28;20417;-70
2022/07/14 14:33:03;;;;;;;1.60;1.50;;;;;;;;;;5016906;28;20460;-69
2022/07/14 14:35:30;;;;;;;1.20;1.10;;;;;;;;;;5016923;28;20911;-69
2022/07/14 14:37:56;;;;;;;1.97;1.10;;;;;;;;;;5016773;28;20404;-69
2022/07/14 14:40:21;;;;;;;1.33;0.93;;;;;;;;;;5016685;28;20424;-68
2022/07/14 14:42:48;;;;;;;1.20;1.20;;;;;;;;;;5016697;28;20970;-68
2022/07/14 14:45:14;;;;;;;3.53;1.20;;;;;;;;;;5017074;28;20539;-71
2022/07/14 14:47:41;;;;;;;1.10;1.03;;;;;;;;;;5016568;28;20464;-70
2022/07/14 14:50:07;;;;;;;1.63;1.13;;;;;;;;;;5016562;28;20413;-69
2022/07/14 14:52:33;;;;;;;1.63;1.20;;;;;;;;;;5016494;28;20512;-71
2022/07/14 14:55:00;;;;;;;0.97;0.97;;;;;;;;;;5016464;28;20471;-70
2022/07/14 14:57:26;;;;;;;0.97;0.90;;;;;;;;;;5016391;28;20490;-69
2022/07/14 14:59:52;;;;;;;13.10;1.30;;;;;;;;;;5016453;28;20890;-70
2022/07/14 15:02:19;;;;;;;2.40;1.43;;;;;;;;;;5016437;28;20178;-72